sensor_id;sensor_type;location;lat;lon;timestamp;P1;durP1;ratioP1;P2;durP2;ratioP2
43540;SDS011;29549;40.386;-3.710;2022-12-18T00:08:26;27.60;;;17.38;;
43540;SDS011;29549;40.386;-3.710;2022-12-18T00:18:28;29.63;;;16.42;;
43540;SDS011;29549;40.386;-3.710;2022-12-18T00:28:30;28.00;;;17.65;;
43540;SDS011;29549;40.386;-3.710;2022-12-18T00:38:32;49.13;;;19.23;;
43540;SDS011;29549;40.386;-3.710;2022-12-18T00:48:34;28.42;;;18.58;;
43540;SDS011;29549;40.386;-3.710;2022-12-18T00:58:36;37.63;;;18.65;;
43540;SDS011;29549;40.386;-3.710;2022-12-18T01:08:38;45.65;;;17.83;;
43540;SDS011;29549;40.386;-3.710;2022-12-18T01:18:41;43.17;;;18.27;;
43540;SDS011;29549;40.386;-3.710;2022-12-18T01:28:44;30.85;;;16.88;;
43540;SDS011;29549;40.386;-3.710;2022-12-18T01:38:46;90.22;;;18.02;;
43540;SDS011;29549;40.386;-3.710;2022-12-18T01:48:53;35.33;;;19.52;;
43540;SDS011;29549;40.386;-3.710;2022-12-18T01:59:05;44.92;;;18.30;;
43540;SDS011;29549;40.386;-3.710;2022-12-18T02:09:13;39.03;;;16.75;;
43540;SDS011;29549;40.386;-3.710;2022-12-18T02:30:03;51.53;;;17.02;;
43540;SDS011;29549;40.386;-3.710;2022-12-18T02:40:14;35.63;;;15.55;;
43540;SDS011;29549;40.386;-3.710;2022-12-18T02:50:38;39.25;;;15.20;;
43540;SDS011;29549;40.386;-3.710;2022-12-18T03:00:54;39.47;;;13.57;;
43540;SDS011;29549;40.386;-3.710;2022-12-18T03:11:14;20.13;;;11.70;;
43540;SDS011;29549;40.386;-3.710;2022-12-18T03:21:19;30.13;;;12.73;;
43540;SDS011;29549;40.386;-3.710;2022-12-18T03:31:26;27.95;;;12.10;;
43540;SDS011;29549;40.386;-3.710;2022-12-18T03:41:38;24.35;;;14.95;;
43540;SDS011;29549;40.386;-3.710;2022-12-18T03:52:09;23.07;;;12.13;;
43540;SDS011;29549;40.386;-3.710;2022-12-18T04:02:19;21.30;;;11.27;;
43540;SDS011;29549;40.386;-3.710;2022-12-18T04:12:28;27.13;;;13.20;;
43540;SDS011;29549;40.386;-3.710;2022-12-18T04:22:33;21.52;;;13.68;;
43540;SDS011;29549;40.386;-3.710;2022-12-18T04:32:38;17.80;;;10.37;;
43540;SDS011;29549;40.386;-3.710;2022-12-18T04:42:42;19.65;;;10.77;;
43540;SDS011;29549;40.386;-3.710;2022-12-18T04:52:44;15.55;;;9.82;;
43540;SDS011;29549;40.386;-3.710;2022-12-18T05:02:48;15.80;;;10.15;;
43540;SDS011;29549;40.386;-3.710;2022-12-18T05:12:51;17.38;;;10.68;;
43540;SDS011;29549;40.386;-3.710;2022-12-18T05:23:01;17.92;;;10.90;;
43540;SDS011;29549;40.386;-3.710;2022-12-18T05:33:05;19.15;;;12.05;;
43540;SDS011;29549;40.386;-3.710;2022-12-18T05:43:10;24.88;;;15.00;;
43540;SDS011;29549;40.386;-3.710;2022-12-18T05:53:16;20.00;;;12.95;;
43540;SDS011;29549;40.386;-3.710;2022-12-18T06:03:21;22.35;;;13.80;;
43540;SDS011;29549;40.386;-3.710;2022-12-18T06:13:24;18.60;;;12.45;;
43540;SDS011;29549;40.386;-3.710;2022-12-18T06:23:26;18.42;;;12.43;;
43540;SDS011;29549;40.386;-3.710;2022-12-18T06:33:47;15.80;;;11.43;;
43540;SDS011;29549;40.386;-3.710;2022-12-18T06:44:08;13.65;;;9.15;;
43540;SDS011;29549;40.386;-3.710;2022-12-18T06:54:30;11.77;;;7.90;;
43540;SDS011;29549;40.386;-3.710;2022-12-18T07:04:44;11.27;;;7.50;;
43540;SDS011;29549;40.386;-3.710;2022-12-18T07:14:51;14.38;;;8.80;;
43540;SDS011;29549;40.386;-3.710;2022-12-18T07:24:59;17.23;;;9.30;;
43540;SDS011;29549;40.386;-3.710;2022-12-18T07:35:08;23.13;;;11.32;;
43540;SDS011;29549;40.386;-3.710;2022-12-18T07:45:18;23.27;;;12.85;;
43540;SDS011;29549;40.386;-3.710;2022-12-18T07:55:25;24.05;;;13.10;;
43540;SDS011;29549;40.386;-3.710;2022-12-18T08:05:29;22.67;;;11.83;;
43540;SDS011;29549;40.386;-3.710;2022-12-18T08:15:31;23.48;;;11.60;;
43540;SDS011;29549;40.386;-3.710;2022-12-18T08:25:35;23.75;;;11.63;;
43540;SDS011;29549;40.386;-3.710;2022-12-18T08:35:37;23.50;;;12.43;;
43540;SDS011;29549;40.386;-3.710;2022-12-18T08:45:39;21.13;;;10.15;;
43540;SDS011;29549;40.386;-3.710;2022-12-18T08:55:41;14.20;;;8.75;;
43540;SDS011;29549;40.386;-3.710;2022-12-18T09:05:47;18.27;;;9.75;;
43540;SDS011;29549;40.386;-3.710;2022-12-18T09:15:50;17.70;;;10.07;;
43540;SDS011;29549;40.386;-3.710;2022-12-18T09:25:58;16.93;;;10.30;;
43540;SDS011;29549;40.386;-3.710;2022-12-18T09:36:01;15.27;;;8.52;;
43540;SDS011;29549;40.386;-3.710;2022-12-18T09:46:06;19.40;;;9.63;;
43540;SDS011;29549;40.386;-3.710;2022-12-18T09:56:18;15.20;;;8.50;;
43540;SDS011;29549;40.386;-3.710;2022-12-18T10:17:12;18.23;;;10.23;;
43540;SDS011;29549;40.386;-3.710;2022-12-18T10:27:20;17.42;;;9.85;;
43540;SDS011;29549;40.386;-3.710;2022-12-18T10:37:27;18.10;;;10.73;;
43540;SDS011;29549;40.386;-3.710;2022-12-18T10:47:32;15.02;;;9.60;;
43540;SDS011;29549;40.386;-3.710;2022-12-18T10:57:37;17.20;;;9.43;;
43540;SDS011;29549;40.386;-3.710;2022-12-18T11:07:49;13.23;;;8.40;;
43540;SDS011;29549;40.386;-3.710;2022-12-18T11:17:53;14.88;;;7.75;;
43540;SDS011;29549;40.386;-3.710;2022-12-18T11:27:56;8.32;;;5.68;;
43540;SDS011;29549;40.386;-3.710;2022-12-18T11:38:11;11.82;;;6.97;;
43540;SDS011;29549;40.386;-3.710;2022-12-18T11:48:41;10.10;;;6.93;;
43540;SDS011;29549;40.386;-3.710;2022-12-18T12:40:26;7.25;;;3.88;;
43540;SDS011;29549;40.386;-3.710;2022-12-18T12:50:29;6.95;;;3.92;;
43540;SDS011;29549;40.386;-3.710;2022-12-18T13:00:54;10.05;;;7.25;;
43540;SDS011;29549;40.386;-3.710;2022-12-18T13:10:58;7.53;;;3.70;;
43540;SDS011;29549;40.386;-3.710;2022-12-18T13:41:42;5.77;;;3.57;;
43540;SDS011;29549;40.386;-3.710;2022-12-18T13:51:55;5.28;;;3.90;;
43540;SDS011;29549;40.386;-3.710;2022-12-18T14:01:59;5.45;;;3.72;;
43540;SDS011;29549;40.386;-3.710;2022-12-18T14:12:06;12.02;;;4.45;;
43540;SDS011;29549;40.386;-3.710;2022-12-18T14:22:34;7.97;;;4.78;;
43540;SDS011;29549;40.386;-3.710;2022-12-18T14:32:36;5.07;;;3.60;;
43540;SDS011;29549;40.386;-3.710;2022-12-18T14:42:37;7.20;;;3.28;;
43540;SDS011;29549;40.386;-3.710;2022-12-18T14:52:40;5.82;;;3.50;;
43540;SDS011;29549;40.386;-3.710;2022-12-18T15:02:42;8.07;;;4.70;;
43540;SDS011;29549;40.386;-3.710;2022-12-18T15:13:29;7.07;;;3.97;;
43540;SDS011;29549;40.386;-3.710;2022-12-18T15:23:17;10.90;;;6.05;;
43540;SDS011;29549;40.386;-3.710;2022-12-18T15:33:23;7.13;;;4.65;;
43540;SDS011;29549;40.386;-3.710;2022-12-18T15:43:29;5.93;;;3.58;;
43540;SDS011;29549;40.386;-3.710;2022-12-18T15:53:37;5.10;;;3.45;;
43540;SDS011;29549;40.386;-3.710;2022-12-18T16:03:39;7.78;;;5.35;;
43540;SDS011;29549;40.386;-3.710;2022-12-18T16:13:41;7.68;;;4.35;;
43540;SDS011;29549;40.386;-3.710;2022-12-18T16:23:43;7.47;;;4.53;;
43540;SDS011;29549;40.386;-3.710;2022-12-18T16:33:44;8.45;;;5.03;;
43540;SDS011;29549;40.386;-3.710;2022-12-18T16:43:46;13.35;;;8.10;;
43540;SDS011;29549;40.386;-3.710;2022-12-18T16:53:48;13.60;;;7.32;;
43540;SDS011;29549;40.386;-3.710;2022-12-18T17:03:51;13.57;;;10.45;;
43540;SDS011;29549;40.386;-3.710;2022-12-18T17:13:54;15.60;;;9.35;;
43540;SDS011;29549;40.386;-3.710;2022-12-18T17:23:58;15.48;;;11.00;;
43540;SDS011;29549;40.386;-3.710;2022-12-18T17:34:02;16.33;;;9.77;;
43540;SDS011;29549;40.386;-3.710;2022-12-18T17:44:04;33.35;;;16.70;;
43540;SDS011;29549;40.386;-3.710;2022-12-18T17:54:06;26.20;;;15.40;;
43540;SDS011;29549;40.386;-3.710;2022-12-18T18:04:08;12.52;;;8.32;;
43540;SDS011;29549;40.386;-3.710;2022-12-18T18:14:15;11.05;;;6.75;;
43540;SDS011;29549;40.386;-3.710;2022-12-18T18:24:20;15.65;;;7.43;;
43540;SDS011;29549;40.386;-3.710;2022-12-18T18:34:25;12.63;;;6.35;;
43540;SDS011;29549;40.386;-3.710;2022-12-18T18:44:28;13.52;;;7.05;;
43540;SDS011;29549;40.386;-3.710;2022-12-18T18:54:30;12.68;;;7.15;;
43540;SDS011;29549;40.386;-3.710;2022-12-18T19:04:32;10.38;;;7.32;;
43540;SDS011;29549;40.386;-3.710;2022-12-18T19:14:34;11.65;;;6.63;;
43540;SDS011;29549;40.386;-3.710;2022-12-18T19:24:37;10.48;;;6.78;;
43540;SDS011;29549;40.386;-3.710;2022-12-18T19:34:38;11.57;;;7.82;;
43540;SDS011;29549;40.386;-3.710;2022-12-18T19:44:40;12.45;;;6.47;;
43540;SDS011;29549;40.386;-3.710;2022-12-18T19:54:42;16.27;;;11.30;;
43540;SDS011;29549;40.386;-3.710;2022-12-18T20:04:45;12.82;;;9.70;;
43540;SDS011;29549;40.386;-3.710;2022-12-18T20:14:48;13.88;;;9.23;;
43540;SDS011;29549;40.386;-3.710;2022-12-18T20:24:50;12.82;;;8.30;;
43540;SDS011;29549;40.386;-3.710;2022-12-18T20:34:52;13.05;;;8.63;;
43540;SDS011;29549;40.386;-3.710;2022-12-18T20:44:54;14.18;;;7.95;;
43540;SDS011;29549;40.386;-3.710;2022-12-18T20:54:56;14.93;;;9.43;;
43540;SDS011;29549;40.386;-3.710;2022-12-18T21:04:58;11.73;;;6.90;;
43540;SDS011;29549;40.386;-3.710;2022-12-18T21:15:00;13.23;;;8.18;;
43540;SDS011;29549;40.386;-3.710;2022-12-18T21:25:03;11.48;;;8.38;;
43540;SDS011;29549;40.386;-3.710;2022-12-18T21:35:05;12.43;;;8.35;;
43540;SDS011;29549;40.386;-3.710;2022-12-18T21:45:08;11.18;;;7.30;;
43540;SDS011;29549;40.386;-3.710;2022-12-18T21:55:10;13.23;;;9.50;;
43540;SDS011;29549;40.386;-3.710;2022-12-18T22:05:13;20.05;;;12.48;;
43540;SDS011;29549;40.386;-3.710;2022-12-18T22:15:15;24.77;;;15.02;;
43540;SDS011;29549;40.386;-3.710;2022-12-18T22:25:19;15.93;;;11.40;;
43540;SDS011;29549;40.386;-3.710;2022-12-18T22:35:21;19.42;;;14.13;;
43540;SDS011;29549;40.386;-3.710;2022-12-18T22:45:24;18.27;;;13.13;;
43540;SDS011;29549;40.386;-3.710;2022-12-18T22:55:27;19.85;;;14.88;;
43540;SDS011;29549;40.386;-3.710;2022-12-18T23:05:29;23.73;;;15.18;;
43540;SDS011;29549;40.386;-3.710;2022-12-18T23:15:32;21.00;;;12.55;;
43540;SDS011;29549;40.386;-3.710;2022-12-18T23:25:35;25.40;;;14.95;;
43540;SDS011;29549;40.386;-3.710;2022-12-18T23:35:37;20.40;;;16.15;;
43540;SDS011;29549;40.386;-3.710;2022-12-18T23:45:39;24.33;;;16.38;;
43540;SDS011;29549;40.386;-3.710;2022-12-18T23:55:41;20.10;;;13.43;;
